Map

Track Data

SID SEASON NUMBER BASIN SUBBASIN NAME ISO_TIME NATURE LAT LON WMO_WIND WMO_PRES WMO_AGENCY TRACK_TYPE DIST2LAND LANDFALL IFLAG USA_AGENCY USA_ATCF_ID USA_LAT USA_LON USA_RECORD USA_STATUS USA_WIND USA_PRES USA_SSHS USA_R34_NE USA_R34_SE USA_R34_SW USA_R34_NW USA_R50_NE USA_R50_SE USA_R50_SW USA_R50_NW USA_R64_NE USA_R64_SE USA_R64_SW USA_R64_NW USA_POCI USA_ROCI USA_RMW USA_EYE TOKYO_LAT TOKYO_LON TOKYO_GRADE TOKYO_WIND TOKYO_PRES TOKYO_R50_DIR TOKYO_R50_LONG TOKYO_R50_SHORT TOKYO_R30_DIR TOKYO_R30_LONG TOKYO_R30_SHORT TOKYO_LAND CMA_LAT CMA_LON CMA_CAT CMA_WIND CMA_PRES HKO_LAT HKO_LON HKO_CAT HKO_WIND HKO_PRES NEWDELHI_LAT NEWDELHI_LON NEWDELHI_GRADE NEWDELHI_WIND NEWDELHI_PRES NEWDELHI_CI NEWDELHI_DP NEWDELHI_POCI REUNION_LAT REUNION_LON REUNION_TYPE REUNION_WIND REUNION_PRES REUNION_TNUM REUNION_CI REUNION_RMW REUNION_R34_NE REUNION_R34_SE REUNION_R34_SW REUNION_R34_NW REUNION_R50_NE REUNION_R50_SE REUNION_R50_SW REUNION_R50_NW REUNION_R64_NE REUNION_R64_SE REUNION_R64_SW REUNION_R64_NW BOM_LAT BOM_LON BOM_TYPE BOM_WIND BOM_PRES BOM_TNUM BOM_CI BOM_RMW BOM_R34_NE BOM_R34_SE BOM_R34_SW BOM_R34_NW BOM_R50_NE BOM_R50_SE BOM_R50_SW BOM_R50_NW BOM_R64_NE BOM_R64_SE BOM_R64_SW BOM_R64_NW BOM_ROCI BOM_POCI BOM_EYE BOM_POS_METHOD BOM_PRES_METHOD NADI_LAT NADI_LON NADI_CAT NADI_WIND NADI_PRES WELLINGTON_LAT WELLINGTON_LON WELLINGTON_WIND WELLINGTON_PRES DS824_LAT DS824_LON DS824_STAGE DS824_WIND DS824_PRES TD9636_LAT TD9636_LON TD9636_STAGE TD9636_WIND TD9636_PRES TD9635_LAT TD9635_LON TD9635_WIND TD9635_PRES TD9635_ROCI NEUMANN_LAT NEUMANN_LON NEUMANN_CLASS NEUMANN_WIND NEUMANN_PRES MLC_LAT MLC_LON MLC_CLASS MLC_WIND MLC_PRES USA_GUST BOM_GUST BOM_GUST_PER REUNION_GUST REUNION_GUST_PER USA_SEAHGT USA_SEARAD_NE USA_SEARAD_SE USA_SEARAD_SW USA_SEARAD_NW STORM_SPEED STORM_DIR
1947233N17087 1947 56 NI BB NOT_NAMED 1947-08-20 18:00:00 TS 16.9000 87.4000 main 362 348 O________O____ jtwc_io IO091947 16.9000 87.4000 -1 16.9000 87.4000 TC 3 293
1947233N17087 1947 56 NI BB NOT_NAMED 1947-08-20 21:00:00 TS 16.9600 87.2500 main 348 332 P________P____ IO091947 16.9600 87.2500 -1 16.9600 87.2500 TC 3 289
1947233N17087 1947 56 NI BB NOT_NAMED 1947-08-21 00:00:00 TS 17.0000 87.1000 main 332 324 O________O____ jtwc_io IO091947 17.0000 87.1000 -1 17.0000 87.1000 TC 25 3 279
1947233N17087 1947 56 NI BB NOT_NAMED 1947-08-21 03:00:00 TS 17.0067 86.9555 main 324 307 P________PO___ IO091947 17.0075 86.9500 -1 17.0075 86.9500 TC 25 17.0000 87.0000 1 3 269
1947233N17087 1947 56 NI BB NOT_NAMED 1947-08-21 06:00:00 TS 16.9941 86.8006 main 307 292 O________OP___ jtwc_io IO091947 17.0000 86.8000 -1 17.0000 86.8000 TC 25 16.9705 86.8030 1 3 265
1947233N17087 1947 56 NI BB NOT_NAMED 1947-08-21 09:00:00 TS 16.9816 86.6404 main 292 284 P________PP___ IO091947 16.9925 86.6500 -1 16.9925 86.6500 TC 25 16.9527 86.6148 1 3 269
1947233N17087 1947 56 NI BB NOT_NAMED 1947-08-21 12:00:00 TS 16.9862 86.4814 main 284 269 O________OP___ jtwc_io IO091947 17.0000 86.5000 -1 17.0000 86.5000 TC 25 16.9586 86.4442 1 3 278
1947233N17087 1947 56 NI BB NOT_NAMED 1947-08-21 15:00:00 TS 17.0233 86.3233 main 269 253 P________PO___ IO091947 17.0350 86.3350 -1 17.0350 86.3350 TC 25 17.0000 86.3000 1 3 292
1947233N17087 1947 56 NI BB NOT_NAMED 1947-08-21 18:00:00 TS 17.0950 86.1966 main 253 238 O________OP___ jtwc_io IO091947 17.1000 86.2000 -1 17.1000 86.2000 TC 25 17.0849 86.1898 1 3 311
1947233N17087 1947 56 NI BB NOT_NAMED 1947-08-21 21:00:00 TS 17.1916 86.1192 main 238 230 P________PP___ IO091947 17.1850 86.1200 -1 17.1850 86.1200 TC 25 17.2049 86.1177 1 2 337
1947233N17087 1947 56 NI BB NOT_NAMED 1947-08-22 00:00:00 TS 17.3158 86.0956 main 230 215 O________OP___ jtwc_io IO091947 17.3000 86.1000 -1 17.3000 86.1000 TC 25 17.3474 86.0867 1 3 355
1947233N17087 1947 56 NI BB NOT_NAMED 1947-08-22 03:00:00 TS 17.4617 86.1183 main 215 215 P________PO___ IO091947 17.4425 86.1275 -1 17.4425 86.1275 TC 25 17.5000 86.1000 1 3 17
1947233N17087 1947 56 NI BB NOT_NAMED 1947-08-22 06:00:00 TS 17.6143 86.1869 main 215 209 O________OP___ jtwc_io IO091947 17.6000 86.2000 -1 17.6000 86.2000 TC 25 17.6429 86.1608 1 3 27
1947233N17087 1947 56 NI BB NOT_NAMED 1947-08-22 09:00:00 TS 17.7642 86.2824 main 211 205 P________PP___ IO091947 17.7500 86.2925 -1 17.7500 86.2925 TC 25 17.7926 86.2623 1 4 33
1947233N17087 1947 56 NI BB NOT_NAMED 1947-08-22 12:00:00 TS 17.9153 86.3942 main 215 203 O________OP___ jtwc_io IO091947 17.9000 86.4000 -1 17.9000 86.4000 TC 25 17.9460 86.3827 1 4 35
1947233N17087 1947 56 NI BB NOT_NAMED 1947-08-22 15:00:00 TS 18.0667 86.5050 main 203 197 P________PO___ IO091947 18.0500 86.5075 -1 18.0500 86.5075 TC 25 18.1000 86.5000 1 4 32
1947233N17087 1947 56 NI BB NOT_NAMED 1947-08-22 18:00:00 TS 18.2153 86.5927 main 197 175 O________OP___ jtwc_io IO091947 18.2000 86.6000 -1 18.2000 86.6000 TC 25 18.2459 86.5782 1 3 25
1947233N17087 1947 56 NI BB NOT_NAMED 1947-08-22 21:00:00 TS 18.3591 86.6501 main 179 168 P________PP___ IO091947 18.3425 86.6501 -1 18.3425 86.6501 TC 25 18.3925 86.6502 1 3 20
1947233N17087 1947 56 NI BB NOT_NAMED 1947-08-23 00:00:00 TS 18.5143 86.7073 main 168 151 O________OP___ jtwc_io IO091947 18.5000 86.7000 -1 18.5000 86.7000 TC 25 18.5428 86.7220 1 4 22
1947233N17087 1947 56 NI BB NOT_NAMED 1947-08-23 03:00:00 TS 18.7000 86.7950 main 151 133 P________PO___ IO091947 18.7000 86.7925 -1 18.7000 86.7925 TC 25 18.7000 86.8000 1 4 26
1947233N17087 1947 56 NI BB NOT_NAMED 1947-08-23 06:00:00 TS 18.8920 86.9003 main 133 123 O________OP___ jtwc_io IO091947 18.9000 86.9000 -1 18.9000 86.9000 TC 25 18.8760 86.9009 1 4 29
1947233N17087 1947 56 NI BB NOT_NAMED 1947-08-23 09:00:00 TS 19.0575 87.0025 main 118 115 P________PP___ IO091947 19.0575 87.0000 -1 19.0575 87.0000 TC 25 19.0575 87.0074 1 4 31
1947233N17087 1947 56 NI BB NOT_NAMED 1947-08-23 12:00:00 TS 19.2118 87.1034 main 115 107 O________OP___ jtwc_io IO091947 19.2000 87.1000 -1 19.2000 87.1000 TC 25 19.2353 87.1102 1 4 31
1947233N17087 1947 56 NI BB NOT_NAMED 1947-08-23 15:00:00 TS 19.3717 87.2050 main 107 107 P________PO___ IO091947 19.3575 87.2075 -1 19.3575 87.2075 TC 25 19.4000 87.2000 1 3 34
1947233N17087 1947 56 NI BB NOT_NAMED 1947-08-23 18:00:00 TS 19.4955 87.3042 main 109 107 O________OP___ jtwc_io IO091947 19.5000 87.3000 -1 19.5000 87.3000 TC 25 19.4865 87.3127 1 3 38
1947233N17087 1947 56 NI BB NOT_NAMED 1947-08-23 21:00:00 TS 19.5791 87.3780 main 107 99 P________PP___ IO091947 19.5850 87.3650 -1 19.5850 87.3650 TC 25 19.5673 87.4041 1 2 28
1947233N17087 1947 56 NI BB NOT_NAMED 1947-08-24 00:00:00 TS 19.6965 87.4145 main 99 85 O________OP___ jtwc_io IO091947 19.7000 87.4000 -1 19.7000 87.4000 TC 25 19.6895 87.4435 1 3 10
1947233N17087 1947 56 NI BB NOT_NAMED 1947-08-24 03:00:00 TS 19.8933 87.4298 main 85 68 P________PO___ IO091947 19.8899 87.4447 -1 19.8899 87.4447 TC 25 19.9000 87.4000 1 5 355
1947233N17087 1947 56 NI BB NOT_NAMED 1947-08-24 06:00:00 TS 20.2254 87.3670 main 68 20 O________OP___ jtwc_io IO091947 20.2000 87.4000 -1 20.2000 87.4000 TC 25 20.2761 87.3010 1 8 344
1947233N17087 1947 56 NI BB NOT_NAMED 1947-08-24 09:00:00 TS 20.6928 87.1914 main 20 10 P________PP___ IO091947 20.6698 87.2323 -1 20.6698 87.2323 TC 25 20.7387 87.1095 1 11 335
1947233N17087 1947 56 NI BB NOT_NAMED 1947-08-24 12:00:00 TS 21.2106 86.8711 main 10 0 O________OP___ jtwc_io IO091947 21.2000 86.9000 -1 21.2000 86.9000 TC 25 21.2319 86.8132 1 12 324
1947233N17087 1947 56 NI BB NOT_NAMED 1947-08-24 15:00:00 TS 21.6816 86.4117 main 0 0 P________PO___ IO091947 21.6724 86.4175 -1 21.6724 86.4175 TC 25 21.7000 86.4000 1 13 312
1947233N17087 1947 56 NI BB NOT_NAMED 1947-08-24 18:00:00 TS 22.1009 85.8195 main 0 0 O________OP___ jtwc_io IO091947 22.1000 85.8000 -1 22.1000 85.8000 TC 25 22.1026 85.8584 1 14 304
1947233N17087 1947 56 NI BB NOT_NAMED 1947-08-24 21:00:00 TS 22.4848 85.1408 main 0 0 P________PP___ IO091947 22.4951 85.1077 -1 22.4951 85.1077 TC 25 22.4640 85.2071 1 15 298
1947233N17087 1947 56 NI BB NOT_NAMED 1947-08-25 00:00:00 TS 22.7894 84.4340 main 0 0 O________OP___ jtwc_io IO091947 22.8000 84.4000 -1 22.8000 84.4000 TC 25 22.7682 84.5021 1 13 292
1947233N17087 1947 56 NI BB NOT_NAMED 1947-08-25 03:00:00 TS 22.9964 83.7897 main 0 0 P________PO___ IO091947 22.9946 83.7846 -1 22.9946 83.7846 TC 25 23.0000 83.8000 1 12 286
1947233N17087 1947 56 NI BB NOT_NAMED 1947-08-25 06:00:00 TS 23.1141 83.1892 main 0 0 O________OP___ jtwc_io IO091947 23.1000 83.2000 -1 23.1000 83.2000 TC 25 23.1422 83.1675 1 11 279
1947233N17087 1947 56 NI BB NOT_NAMED 1947-08-25 09:00:00 TS 23.1771 82.5840 main 0 0 P________PP___ IO091947 23.1573 82.5997 -1 23.1573 82.5997 TC 25 23.2168 82.5526 1 11 275
1947233N17087 1947 56 NI BB NOT_NAMED 1947-08-25 12:00:00 TS 23.2193 81.9872 main 0 0 O________OP___ jtwc_io IO091947 23.2000 82.0000 -1 23.2000 82.0000 TC 25 23.2580 81.9616 1 11 276
1947233N17087 1947 56 NI BB NOT_NAMED 1947-08-25 15:00:00 TS 23.2950 81.3900 main 0 0 P________PO___ IO091947 23.2924 81.3851 -1 23.2924 81.3851 TC 25 23.3000 81.4000 1 11 280
1947233N17087 1947 56 NI BB NOT_NAMED 1947-08-25 18:00:00 TS 23.4001 80.8157 main 0 0 O________OP___ jtwc_io IO091947 23.4000 80.8000 -1 23.4000 80.8000 TC 25 23.4004 80.8471 1 10 282
1947233N17087 1947 56 NI BB NOT_NAMED 1947-08-25 21:00:00 TS 23.5022 80.2884 main 0 0 P________PP___ IO091947 23.4998 80.2699 -1 23.4998 80.2699 TC 25 23.5070 80.3253 1 9 282
1947233N17087 1947 56 NI BB NOT_NAMED 1947-08-26 00:00:00 TS 23.6033 79.8136 main 0 0 O________OP___ jtwc_io IO091947 23.6000 79.8000 -1 23.6000 79.8000 TC 25 23.6100 79.8409 1 9 284
1947233N17087 1947 56 NI BB NOT_NAMED 1947-08-26 03:00:00 TS 23.7099 79.3850 main 0 0 P________PO___ IO091947 23.7148 79.3776 -1 23.7148 79.3776 TC 25 23.7000 79.4000 1 8 284
1947233N17087 1947 56 NI BB NOT_NAMED 1947-08-26 06:00:00 TS 23.7865 78.9994 main 0 0 O________OP___ jtwc_io IO091947 23.8000 79.0000 -1 23.8000 79.0000 TC 25 23.7596 78.9983 1 7 278
1947233N17087 1947 56 NI BB NOT_NAMED 1947-08-26 09:00:00 TS 23.8022 78.6313 main 0 0 P________PP___ IO091947 23.8000 78.6273 -1 23.8000 78.6273 TC 25 23.8067 78.6395 1 6 273
1947233N17087 1947 56 NI BB NOT_NAMED 1947-08-26 12:00:00 TS 23.8168 78.3036 main 0 0 O________OP___ jtwc_io IO091947 23.8000 78.3000 -1 23.8000 78.3000 TC 25 23.8504 78.3109 1 6 279
1947233N17087 1947 56 NI BB NOT_NAMED 1947-08-26 15:00:00 TS 23.8949 78.0234 main 0 0 P________PO___ IO091947 23.8924 78.0351 -1 23.8924 78.0351 TC 25 23.9000 78.0000 1 5 290
1947233N17087 1947 56 NI AS NOT_NAMED 1947-08-26 18:00:00 TS 23.9846 77.7860 main 0 0 O________OP___ jtwc_io IO091947 24.0000 77.8000 -1 24.0000 77.8000 TC 25 23.9539 77.7579 1 4 289
1947233N17087 1947 56 NI AS NOT_NAMED 1947-08-26 21:00:00 TS 24.0388 77.5744 main 0 0 P________PP___ IO091947 24.0496 77.6023 -1 24.0496 77.6023 TC 25 24.0172 77.5186 1 5 284
1947233N17087 1947 56 NI AS NOT_NAMED 1947-08-27 00:00:00 TS 24.0990 77.2734 main 0 0 O________OP___ jtwc_io IO091947 24.1000 77.3000 -1 24.1000 77.3000 TC 25 24.0970 77.2201 1 7 282
1947233N17087 1947 56 NI AS NOT_NAMED 1947-08-27 03:00:00 TS 24.1900 76.7833 main 0 0 P________PO___ IO091947 24.1850 76.7749 -1 24.1850 76.7749 TC 25 24.2000 76.8000 1 11 281
1947233N17087 1947 56 NI AS NOT_NAMED 1947-08-27 06:00:00 TS 24.3058 76.1264 main 0 0 O________OP___ jtwc_io IO091947 24.3000 76.1000 -1 24.3000 76.1000 TC 25 24.3175 76.1792 1 13 281
1947233N17087 1947 56 NI AS NOT_NAMED 1947-08-27 09:00:00 TS 24.4422 75.3931 main 0 0 P________PP___ IO091947 24.4349 75.3724 -1 24.4349 75.3724 TC 25 24.4567 75.4346 1 14 282
1947233N17087 1947 56 NI AS NOT_NAMED 1947-08-27 12:00:00 TS 24.6058 74.6075 main 0 0 O________OP___ jtwc_io IO091947 24.6000 74.6000 -1 24.6000 74.6000 TC 25 24.6173 74.6226 1 15 284
1947233N17087 1947 56 NI AS NOT_NAMED 1947-08-27 15:00:00 TS 24.7948 73.8333 main 0 0 P________PO___ IO091947 24.7921 73.8499 -1 24.7921 73.8499 TC 25 24.8000 73.8000 1 15 286
1947233N17087 1947 56 NI AS NOT_NAMED 1947-08-27 18:00:00 TS 25.0022 73.0648 main 0 0 O________OP___ jtwc_io IO091947 25.0000 73.1000 -1 25.0000 73.1000 TC 25 25.0054 73.0120 1 14 287
1947233N17087 1947 56 NI AS NOT_NAMED 1947-08-27 21:00:00 TS 25.2141 72.3106 main 0 0 P________PP___ IO091947 25.2033 72.3504 -1 25.2033 72.3504 TC 25 25.2285 72.2575 1 14 288
1947233N17087 1947 56 NI AS NOT_NAMED 1947-08-28 00:00:00 TS 25.4312 71.5621 main 0 0 O________OP___ jtwc_io IO091947 25.4000 71.6000 -1 25.4000 71.6000 TC 25 25.4624 71.5242 1 14 290
1947233N17087 1947 56 NI AS NOT_NAMED 1947-08-28 03:00:00 NR 25.7000 70.8000 main 0 __________O___ IO091947 -1 TC 25.7000 70.8000 1 15 291

About IBTrACS Database

This database is a web-friendly format of International Best Track Archive for Climate Stewardship (IBTrACS), a global best track data archive curated by NOAA dating back to 1842.

Updated: 2021-10-21